createdAt,value
2017-08-10T00:01:15.808Z,4.57
2017-08-10T00:03:44.292Z,5.20
2017-08-10T00:06:12.700Z,4.80
2017-08-10T00:08:41.886Z,4.70
2017-08-10T00:11:11.108Z,5.70
2017-08-10T00:13:39.512Z,5.90
2017-08-10T00:16:07.925Z,5.20
2017-08-10T00:18:36.368Z,5.53
2017-08-10T00:21:04.804Z,5.50
2017-08-10T00:23:33.992Z,5.20
2017-08-10T00:26:02.428Z,6.03
2017-08-10T00:28:30.837Z,6.63
2017-08-10T00:30:59.241Z,6.80
2017-08-10T00:33:28.449Z,7.43
2017-08-10T00:35:56.880Z,7.53
2017-08-10T00:38:25.292Z,7.90
2017-08-10T00:40:54.510Z,8.53
2017-08-10T00:43:22.945Z,8.00
2017-08-10T00:45:51.341Z,6.60
2017-08-10T00:48:20.546Z,7.87
2017-08-10T00:50:49.723Z,7.60
2017-08-10T00:53:18.141Z,7.70
2017-08-10T00:55:46.560Z,8.40
2017-08-10T00:58:14.968Z,7.87
2017-08-10T01:00:44.156Z,8.20
2017-08-10T01:03:12.605Z,7.87
2017-08-10T01:05:41.009Z,7.50
2017-08-10T01:08:09.422Z,7.50
2017-08-10T01:10:37.889Z,8.33
2017-08-10T01:13:07.060Z,8.43
2017-08-10T01:15:35.484Z,10.80
2017-08-10T01:18:03.929Z,9.27
2017-08-10T01:20:32.340Z,8.90
2017-08-10T01:23:00.769Z,10.53
2017-08-10T01:25:29.231Z,9.73
2017-08-10T01:27:57.648Z,9.50
2017-08-10T01:30:26.061Z,10.80
2017-08-10T01:32:54.518Z,10.80
2017-08-10T01:35:23.705Z,11.10
2017-08-10T01:37:52.125Z,11.90
2017-08-10T01:40:20.559Z,12.33
2017-08-10T01:42:48.993Z,13.87
2017-08-10T01:45:17.425Z,12.97
2017-08-10T01:47:45.853Z,15.10
2017-08-10T01:50:14.296Z,14.60
2017-08-10T01:52:43.484Z,15.00
2017-08-10T01:55:12.696Z,15.70
2017-08-10T01:57:41.887Z,16.23
2017-08-10T02:00:10.743Z,16.67
2017-08-10T02:02:38.815Z,15.93
2017-08-10T02:05:06.889Z,17.20
2017-08-10T02:07:34.964Z,17.73
2017-08-10T02:10:03.064Z,17.90
2017-08-10T02:12:32.242Z,19.30
2017-08-10T02:15:01.436Z,31.07
2017-08-10T02:17:30.690Z,31.60
2017-08-10T02:19:59.115Z,21.87
2017-08-10T02:22:27.525Z,18.20
2017-08-10T02:24:55.965Z,19.87
2017-08-10T02:27:24.396Z,20.23
2017-08-10T02:29:52.867Z,20.20
2017-08-10T02:32:21.308Z,20.00
2017-08-10T02:34:49.722Z,19.67
2017-08-10T02:37:18.185Z,22.70
2017-08-10T02:39:47.401Z,21.10
2017-08-10T02:42:15.827Z,22.27
2017-08-10T02:44:44.256Z,22.23
2017-08-10T02:47:12.696Z,23.13
2017-08-10T02:49:41.128Z,23.53
2017-08-10T02:52:09.565Z,22.13
2017-08-10T02:54:38.766Z,22.37
2017-08-10T02:57:07.949Z,23.87
2017-08-10T02:59:37.137Z,28.90
2017-08-10T03:02:05.588Z,26.90
2017-08-10T03:04:34.009Z,23.53
2017-08-10T03:07:03.209Z,23.00
2017-08-10T03:09:32.437Z,23.97
2017-08-10T03:12:00.853Z,22.87
2017-08-10T03:14:29.260Z,23.73
2017-08-10T03:16:58.526Z,25.67
2017-08-10T03:19:26.940Z,25.30
2017-08-10T03:21:56.137Z,24.47
2017-08-10T03:24:25.264Z,24.50
2017-08-10T03:26:53.683Z,26.30
2017-08-10T03:29:22.100Z,25.17
2017-08-10T03:31:51.364Z,25.37
2017-08-10T03:34:19.770Z,25.27
2017-08-10T03:36:48.985Z,24.27
2017-08-10T03:39:17.421Z,27.43
2017-08-10T03:41:45.841Z,26.23
2017-08-10T03:44:14.271Z,26.03
2017-08-10T03:46:42.731Z,24.07
2017-08-10T03:49:11.146Z,29.70
2017-08-10T03:51:39.601Z,25.93
2017-08-10T03:54:08.028Z,25.50
2017-08-10T03:56:37.233Z,26.13
2017-08-10T03:59:05.652Z,25.50
2017-08-10T04:01:34.110Z,27.23
2017-08-10T04:04:02.529Z,27.43
2017-08-10T04:06:30.949Z,25.37
2017-08-10T04:08:59.415Z,27.00
2017-08-10T04:11:28.597Z,28.47
2017-08-10T04:13:57.027Z,27.53
2017-08-10T04:16:25.484Z,28.20
2017-08-10T04:18:53.892Z,25.80
2017-08-10T04:21:22.324Z,26.30
2017-08-10T04:23:51.536Z,27.57
2017-08-10T04:26:19.978Z,25.50
2017-08-10T04:28:48.386Z,27.00
2017-08-10T04:31:17.593Z,25.73
2017-08-10T04:33:46.012Z,27.30
2017-08-10T04:36:14.437Z,26.90
2017-08-10T04:38:43.653Z,27.20
2017-08-10T04:41:12.077Z,25.17
2017-08-10T04:43:40.488Z,27.43
2017-08-10T04:46:09.707Z,26.20
2017-08-10T04:48:38.155Z,26.00
2017-08-10T04:51:07.265Z,27.60
2017-08-10T04:53:36.484Z,27.50
2017-08-10T04:56:04.908Z,27.67
2017-08-10T04:58:33.332Z,27.83
2017-08-10T05:01:01.800Z,29.63
2017-08-10T05:03:30.999Z,29.07
2017-08-10T05:06:00.191Z,31.00
2017-08-10T05:08:29.397Z,28.60
2017-08-10T05:10:58.584Z,28.80
2017-08-10T05:13:27.782Z,27.07
2017-08-10T05:15:56.997Z,28.30
2017-08-10T05:18:25.433Z,26.67
2017-08-10T05:20:53.856Z,26.00
2017-08-10T05:23:23.064Z,27.80
2017-08-10T05:25:51.490Z,25.93
2017-08-10T05:28:19.903Z,26.10
2017-08-10T05:30:48.343Z,25.33
2017-08-10T05:33:16.769Z,27.43
2017-08-10T05:35:45.217Z,28.13
2017-08-10T05:38:13.665Z,28.07
2017-08-10T05:40:42.088Z,26.00
2017-08-10T05:43:11.305Z,26.43
2017-08-10T05:45:39.746Z,29.43
2017-08-10T05:48:08.177Z,30.27
2017-08-10T05:50:36.614Z,43.23
2017-08-10T05:53:05.054Z,36.23
2017-08-10T05:55:33.481Z,28.93
2017-08-10T05:58:02.672Z,29.60
2017-08-10T06:00:32.576Z,27.23
2017-08-10T06:03:01.012Z,24.53
2017-08-10T06:05:29.444Z,26.37
2017-08-10T06:07:57.889Z,25.03
2017-08-10T06:10:26.285Z,26.07
2017-08-10T06:12:54.731Z,24.47
2017-08-10T06:15:23.172Z,27.43
2017-08-10T06:17:52.345Z,25.90
2017-08-10T06:20:20.775Z,25.77
2017-08-10T06:22:49.240Z,25.03
2017-08-10T06:25:18.410Z,26.93
2017-08-10T06:27:47.587Z,25.60
2017-08-10T06:30:16.030Z,25.80
2017-08-10T06:32:44.453Z,27.27
2017-08-10T06:35:12.925Z,25.30
2017-08-10T06:37:41.375Z,26.33
2017-08-10T06:40:09.820Z,26.00
2017-08-10T06:42:38.267Z,25.00
2017-08-10T06:45:06.934Z,26.00
2017-08-10T06:47:35.369Z,26.00
2017-08-10T06:50:03.837Z,25.30
2017-08-10T06:52:33.084Z,24.57
2017-08-10T06:55:01.620Z,25.80
2017-08-10T06:57:30.057Z,25.03
2017-08-10T06:59:58.492Z,25.27
2017-08-10T07:02:26.912Z,24.47
2017-08-10T07:04:55.354Z,23.10
2017-08-10T07:07:24.173Z,25.57
2017-08-10T07:09:52.751Z,25.07
2017-08-10T07:12:21.172Z,24.40
2017-08-10T07:14:53.481Z,23.77
2017-08-10T07:17:22.002Z,26.33
2017-08-10T07:19:50.456Z,25.40
2017-08-10T07:22:18.900Z,25.60
2017-08-10T07:24:48.072Z,25.60
2017-08-10T07:27:17.308Z,25.80
2017-08-10T07:29:45.729Z,24.93
2017-08-10T07:32:14.147Z,27.33
2017-08-10T07:34:42.594Z,27.53
2017-08-10T07:37:11.041Z,24.53
2017-08-10T07:39:39.573Z,26.50
2017-08-10T07:42:08.767Z,28.67
2017-08-10T07:44:37.524Z,28.00
2017-08-10T07:47:06.276Z,26.37
2017-08-10T07:49:34.805Z,26.93
2017-08-10T07:52:03.246Z,27.27
2017-08-10T07:54:31.768Z,28.13
2017-08-10T07:57:00.367Z,27.20
2017-08-10T07:59:28.832Z,27.33
2017-08-10T08:01:58.551Z,26.80
2017-08-10T08:04:27.111Z,26.73
2017-08-10T08:06:55.542Z,26.27
2017-08-10T08:09:25.039Z,27.45
2017-08-10T08:11:53.499Z,25.10
2017-08-10T08:14:22.689Z,22.50
2017-08-10T08:16:51.874Z,23.70
2017-08-10T08:19:20.334Z,24.40
2017-08-10T08:21:49.460Z,23.40
2017-08-10T08:24:18.649Z,23.20
2017-08-10T08:26:47.082Z,23.93
2017-08-10T08:29:16.308Z,24.43
2017-08-10T08:31:44.743Z,26.37
2017-08-10T08:34:13.197Z,21.63
2017-08-10T08:36:42.381Z,21.20
2017-08-10T08:39:10.825Z,21.20
2017-08-10T08:41:39.267Z,20.60
2017-08-10T08:44:07.685Z,21.87
2017-08-10T08:46:36.108Z,21.97
2017-08-10T08:49:05.320Z,24.13
2017-08-10T08:51:33.752Z,22.13
2017-08-10T08:54:02.189Z,23.20
2017-08-10T08:56:30.629Z,21.60
2017-08-10T08:58:59.060Z,21.60
2017-08-10T09:01:27.488Z,22.60
2017-08-10T09:03:56.614Z,20.00
2017-08-10T09:06:25.052Z,21.90
2017-08-10T09:08:53.497Z,21.40
2017-08-10T09:11:21.958Z,21.40
2017-08-10T09:13:50.401Z,21.67
2017-08-10T09:16:18.817Z,20.70
2017-08-10T09:18:47.263Z,21.73
2017-08-10T09:21:15.684Z,20.70
2017-08-10T09:23:44.105Z,26.00
2017-08-10T09:26:12.538Z,29.13
2017-08-10T09:28:40.961Z,24.67
2017-08-10T09:31:09.406Z,29.30
2017-08-10T09:33:39.289Z,23.20
2017-08-10T09:36:07.714Z,26.07
2017-08-10T09:38:36.145Z,31.87
2017-08-10T09:41:05.412Z,27.40
2017-08-10T09:43:33.840Z,22.77
2017-08-10T09:46:02.269Z,22.73
2017-08-10T09:48:30.705Z,23.23
2017-08-10T09:50:59.138Z,24.93
2017-08-10T09:53:27.552Z,21.63
2017-08-10T09:55:56.004Z,21.63
2017-08-10T09:58:25.197Z,20.67
2017-08-10T10:00:54.375Z,21.40
2017-08-10T10:03:23.002Z,21.23
2017-08-10T10:05:51.418Z,19.33
2017-08-10T10:08:19.849Z,19.47
2017-08-10T10:10:49.072Z,18.23
2017-08-10T10:13:17.496Z,23.80
2017-08-10T10:15:45.936Z,25.60
2017-08-10T10:18:14.381Z,24.27
2017-08-10T10:20:43.577Z,20.57
2017-08-10T10:23:12.767Z,24.67
2017-08-10T10:25:41.267Z,31.93
2017-08-10T10:28:09.719Z,21.20
2017-08-10T10:30:40.223Z,21.20
2017-08-10T10:33:08.692Z,19.17
2017-08-10T10:35:37.172Z,19.97
2017-08-10T10:38:05.598Z,19.23
2017-08-10T10:40:34.824Z,18.80
2017-08-10T10:43:03.063Z,18.20
2017-08-10T10:45:31.485Z,19.27
2017-08-10T10:47:59.967Z,16.13
2017-08-10T10:50:28.413Z,17.23
2017-08-10T10:52:57.603Z,17.07
2017-08-10T10:55:26.163Z,15.20
2017-08-10T10:57:55.289Z,18.23
2017-08-10T11:00:24.484Z,17.63
2017-08-10T11:02:53.730Z,15.80
2017-08-10T11:05:22.165Z,31.70
2017-08-10T11:07:50.367Z,35.50
2017-08-10T11:10:18.877Z,21.13
2017-08-10T11:12:48.166Z,12.33
2017-08-10T11:15:16.620Z,18.90
2017-08-10T11:17:45.044Z,28.30
2017-08-10T11:20:13.485Z,19.63
2017-08-10T11:22:42.022Z,12.17
2017-08-10T11:25:11.287Z,18.23
2017-08-10T11:27:40.609Z,13.10
2017-08-10T11:30:09.940Z,14.70
2017-08-10T11:32:38.544Z,11.03
2017-08-10T11:35:06.990Z,13.23
2017-08-10T11:37:36.244Z,26.77
2017-08-10T11:40:04.686Z,31.00
2017-08-10T11:42:33.129Z,41.30
2017-08-10T11:45:02.332Z,18.93
2017-08-10T11:47:31.489Z,14.80
2017-08-10T11:50:00.019Z,15.60
2017-08-10T11:52:29.196Z,22.27
2017-08-10T11:54:58.437Z,14.20
2017-08-10T11:57:26.858Z,30.00
2017-08-10T11:59:55.304Z,17.70
2017-08-10T12:02:23.747Z,12.60
2017-08-10T12:04:52.986Z,10.00
2017-08-10T12:07:21.423Z,12.07
2017-08-10T12:09:50.747Z,10.37
2017-08-10T12:12:19.183Z,17.63
2017-08-10T12:14:47.607Z,15.40
2017-08-10T12:17:16.054Z,10.37
2017-08-10T12:19:45.264Z,15.00
2017-08-10T12:22:13.712Z,7.13
2017-08-10T12:24:42.172Z,6.47
2017-08-10T12:27:10.607Z,5.10
2017-08-10T12:29:39.003Z,5.27
2017-08-10T12:32:07.463Z,4.20
2017-08-10T12:34:36.562Z,4.70
2017-08-10T12:37:04.987Z,4.47
2017-08-10T12:39:33.436Z,5.63
2017-08-10T12:42:01.865Z,18.87
2017-08-10T12:44:30.291Z,21.00
2017-08-10T12:46:58.729Z,14.60
2017-08-10T12:49:28.014Z,6.53
2017-08-10T12:51:56.673Z,3.27
2017-08-10T12:54:25.222Z,2.67
2017-08-10T12:56:53.662Z,3.07
2017-08-10T12:59:22.094Z,2.80
2017-08-10T13:01:50.550Z,2.67
2017-08-10T13:04:18.983Z,2.60
2017-08-10T13:06:47.393Z,2.93
2017-08-10T13:09:16.589Z,2.43
2017-08-10T13:11:45.874Z,2.60
2017-08-10T13:14:15.147Z,3.47
2017-08-10T13:16:43.591Z,4.27
2017-08-10T13:19:11.997Z,2.93
2017-08-10T13:21:40.408Z,2.53
2017-08-10T13:24:09.621Z,2.40
2017-08-10T13:26:38.825Z,3.00
2017-08-10T13:29:07.341Z,2.67
2017-08-10T13:31:36.023Z,2.50
2017-08-10T13:34:04.462Z,3.37
2017-08-10T13:36:33.116Z,3.10
2017-08-10T13:39:01.840Z,3.30
2017-08-10T13:41:31.138Z,3.23
2017-08-10T13:43:59.887Z,20.40
2017-08-10T13:46:28.603Z,4.57
2017-08-10T13:48:57.871Z,4.63
2017-08-10T13:51:26.785Z,5.37
2017-08-10T13:53:56.009Z,4.63
2017-08-10T13:56:24.569Z,4.30
2017-08-10T13:58:53.055Z,4.73
2017-08-10T14:01:22.252Z,4.77
2017-08-10T14:03:50.681Z,4.70
2017-08-10T14:06:19.095Z,3.83
2017-08-10T14:08:48.643Z,3.97
2017-08-10T14:11:17.052Z,4.77
2017-08-10T14:13:46.154Z,6.30
2017-08-10T14:16:14.606Z,5.00
2017-08-10T14:18:43.016Z,5.33
2017-08-10T14:21:11.445Z,5.50
2017-08-10T14:23:39.877Z,7.20
2017-08-10T14:26:08.293Z,11.00
2017-08-10T14:28:36.716Z,11.13
2017-08-10T14:31:05.165Z,9.70
2017-08-10T14:33:33.578Z,9.00
2017-08-10T14:36:01.996Z,10.20
2017-08-10T14:38:30.436Z,11.13
2017-08-10T14:40:58.857Z,11.40
2017-08-10T14:43:27.279Z,11.40
2017-08-10T14:45:55.718Z,10.83
2017-08-10T14:48:24.136Z,11.03
2017-08-10T14:50:52.560Z,11.30
2017-08-10T14:53:21.765Z,11.77
2017-08-10T14:55:50.199Z,11.37
2017-08-10T14:58:18.614Z,14.00
2017-08-10T15:00:47.837Z,13.37
2017-08-10T15:03:16.258Z,13.80
2017-08-10T15:05:44.680Z,15.03
2017-08-10T15:08:14.097Z,12.97
2017-08-10T15:10:42.520Z,13.80
2017-08-10T15:13:10.941Z,12.30
2017-08-10T15:15:39.378Z,12.03
2017-08-10T15:18:07.795Z,13.83
2017-08-10T15:20:36.277Z,11.70
2017-08-10T15:23:04.725Z,11.53
2017-08-10T15:25:33.177Z,11.10
2017-08-10T15:28:01.592Z,12.87
2017-08-10T15:30:30.817Z,10.33
2017-08-10T15:32:59.241Z,10.10
2017-08-10T15:35:27.651Z,9.07
2017-08-10T15:37:56.870Z,9.70
2017-08-10T15:40:25.281Z,10.60
2017-08-10T15:42:54.049Z,10.97
2017-08-10T15:45:22.486Z,11.80
2017-08-10T15:47:50.977Z,10.27
2017-08-10T15:50:20.169Z,12.90
2017-08-10T15:52:48.600Z,14.80
2017-08-10T15:55:17.033Z,17.20
2017-08-10T15:57:46.247Z,22.60
2017-08-10T16:00:15.453Z,24.67
2017-08-10T16:02:43.936Z,19.33
2017-08-10T16:05:12.360Z,13.77
2017-08-10T16:07:40.992Z,14.70
2017-08-10T16:10:09.420Z,13.30
2017-08-10T16:12:37.840Z,16.33
2017-08-10T16:15:07.048Z,10.60
2017-08-10T16:17:35.450Z,9.90
2017-08-10T16:20:03.885Z,9.87
2017-08-10T16:22:33.096Z,9.57
2017-08-10T16:25:01.505Z,9.90
2017-08-10T16:27:29.912Z,9.83
2017-08-10T16:29:58.350Z,9.67
2017-08-10T16:32:26.782Z,10.17
2017-08-10T16:34:55.197Z,12.40
2017-08-10T16:37:23.697Z,12.43
2017-08-10T16:39:52.108Z,13.60
2017-08-10T16:42:20.536Z,17.20
2017-08-10T16:44:48.988Z,15.37
2017-08-10T16:47:18.188Z,16.83
2017-08-10T16:49:47.393Z,14.10
2017-08-10T16:52:16.610Z,14.10
2017-08-10T16:54:45.041Z,13.83
2017-08-10T16:57:13.453Z,15.37
2017-08-10T16:59:41.937Z,15.40
2017-08-10T17:02:10.365Z,14.13
2017-08-10T17:04:38.816Z,14.73
2017-08-10T17:07:07.377Z,13.40
2017-08-10T17:09:35.806Z,13.40
2017-08-10T17:12:04.233Z,14.53
2017-08-10T17:14:32.729Z,13.73
2017-08-10T17:17:01.150Z,28.70
2017-08-10T17:19:29.585Z,28.67
2017-08-10T17:21:58.032Z,24.47
2017-08-10T17:24:27.240Z,14.10
2017-08-10T17:26:56.434Z,16.03
2017-08-10T17:29:25.671Z,15.50
2017-08-10T17:31:54.132Z,15.27
2017-08-10T17:34:23.308Z,15.57
2017-08-10T17:36:52.565Z,15.30
2017-08-10T17:39:21.005Z,17.90
2017-08-10T17:41:49.529Z,17.30
2017-08-10T17:44:18.037Z,20.20
2017-08-10T17:46:46.470Z,28.00
2017-08-10T17:49:14.909Z,32.60
2017-08-10T17:51:44.145Z,24.90
2017-08-10T17:54:12.593Z,21.90
2017-08-10T17:56:41.857Z,20.90
2017-08-10T17:59:10.559Z,19.20
2017-08-10T18:01:39.050Z,22.50
2017-08-10T18:04:08.243Z,22.07
2017-08-10T18:06:37.472Z,20.80
2017-08-10T18:09:05.548Z,21.43
2017-08-10T18:11:33.977Z,22.20
2017-08-10T18:14:03.205Z,20.13
2017-08-10T18:16:32.405Z,18.80
2017-08-10T18:19:00.845Z,21.03
2017-08-10T18:21:29.286Z,26.13
2017-08-10T18:23:57.707Z,21.00
2017-08-10T18:26:26.906Z,21.50
2017-08-10T18:28:55.426Z,23.70
2017-08-10T18:31:23.869Z,23.47
2017-08-10T18:33:52.315Z,21.23
2017-08-10T18:36:20.965Z,22.93
2017-08-10T18:38:49.396Z,22.17
2017-08-10T18:41:17.878Z,24.10
2017-08-10T18:43:46.331Z,24.67
2017-08-10T18:46:14.741Z,23.30
2017-08-10T18:48:43.163Z,24.63
2017-08-10T18:51:11.631Z,26.77
2017-08-10T18:53:40.805Z,27.63
2017-08-10T18:56:10.016Z,26.63
2017-08-10T18:58:39.189Z,28.70
2017-08-10T19:01:07.648Z,29.97
2017-08-10T19:03:36.077Z,27.37
2017-08-10T19:06:05.301Z,27.50
2017-08-10T19:08:34.793Z,33.53
2017-08-10T19:11:03.225Z,30.40
2017-08-10T19:13:31.693Z,29.47
2017-08-10T19:16:00.146Z,27.03
2017-08-10T19:18:28.566Z,30.20
2017-08-10T19:20:57.016Z,28.30
2017-08-10T19:23:25.438Z,29.40
2017-08-10T19:25:54.647Z,29.87
2017-08-10T19:28:23.879Z,28.93
2017-08-10T19:30:52.293Z,28.10
2017-08-10T19:33:20.717Z,28.70
2017-08-10T19:35:50.427Z,27.60
2017-08-10T19:38:18.872Z,28.57
2017-08-10T19:40:47.301Z,27.80
2017-08-10T19:43:15.766Z,26.30
2017-08-10T19:45:44.233Z,28.00
2017-08-10T19:48:13.488Z,26.83
2017-08-10T19:50:41.949Z,28.20
2017-08-10T19:53:10.423Z,28.47
2017-08-10T19:55:38.856Z,30.23
2017-08-10T19:58:08.095Z,30.60
2017-08-10T20:00:36.544Z,30.07
2017-08-10T20:03:06.356Z,31.43
2017-08-10T20:05:35.579Z,37.60
2017-08-10T20:08:04.199Z,40.23
2017-08-10T20:10:34.244Z,32.53
2017-08-10T20:13:03.484Z,29.30
2017-08-10T20:15:31.899Z,31.67
2017-08-10T20:18:00.325Z,29.47
2017-08-10T20:20:28.835Z,32.13
2017-08-10T20:22:57.286Z,31.13
2017-08-10T20:25:25.710Z,31.37
2017-08-10T20:27:54.203Z,32.23
2017-08-10T20:30:22.622Z,32.50
2017-08-10T20:32:51.059Z,31.93
2017-08-10T20:35:19.537Z,33.47
2017-08-10T20:37:47.980Z,33.53
2017-08-10T20:40:16.424Z,30.97
2017-08-10T20:42:44.864Z,41.17
2017-08-10T20:45:13.318Z,35.40
2017-08-10T20:47:41.761Z,35.20
2017-08-10T20:50:11.010Z,33.53
2017-08-10T20:52:39.409Z,34.43
2017-08-10T20:55:07.832Z,34.37
2017-08-10T20:57:36.282Z,37.10
2017-08-10T21:00:05.484Z,38.90
2017-08-10T21:02:34.884Z,35.47
2017-08-10T21:05:04.099Z,38.37
2017-08-10T21:07:32.516Z,35.23
2017-08-10T21:10:00.938Z,36.23
2017-08-10T21:12:30.171Z,36.00
2017-08-10T21:15:00.100Z,35.57
2017-08-10T21:17:28.524Z,34.40
2017-08-10T21:19:56.969Z,36.57
2017-08-10T21:22:25.398Z,37.97
2017-08-10T21:24:54.596Z,38.20
2017-08-10T21:27:23.849Z,37.03
2017-08-10T21:29:52.321Z,40.60
2017-08-10T21:32:20.745Z,38.17
2017-08-10T21:34:50.001Z,36.10
2017-08-10T21:37:18.434Z,37.63
2017-08-10T21:39:46.865Z,38.93
2017-08-10T21:42:15.364Z,37.80
2017-08-10T21:44:43.811Z,39.67
2017-08-10T21:47:12.257Z,39.07
2017-08-10T21:49:40.698Z,38.80
2017-08-10T21:52:09.112Z,42.67
2017-08-10T21:54:37.529Z,42.17
2017-08-10T21:57:05.986Z,43.50
2017-08-10T21:59:34.406Z,41.07
2017-08-10T22:02:02.824Z,41.67
2017-08-10T22:04:32.072Z,41.37
2017-08-10T22:07:00.493Z,42.03
2017-08-10T22:09:29.722Z,40.30
2017-08-10T22:11:58.146Z,39.57
2017-08-10T22:14:26.592Z,43.00
2017-08-10T22:16:55.051Z,41.53
2017-08-10T22:19:23.499Z,44.47
2017-08-10T22:21:52.691Z,43.20
2017-08-10T22:24:21.917Z,44.13
2017-08-10T22:26:50.373Z,46.33
2017-08-10T22:29:19.580Z,46.10
2017-08-10T22:31:48.773Z,45.90
2017-08-10T22:34:18.032Z,44.33
2017-08-10T22:36:46.468Z,45.37
2017-08-10T22:39:14.892Z,44.63
2017-08-10T22:41:44.273Z,47.03
2017-08-10T22:44:12.737Z,48.13
2017-08-10T22:46:41.165Z,47.13
2017-08-10T22:49:09.657Z,50.30
2017-08-10T22:51:38.077Z,50.73
2017-08-10T22:54:06.510Z,51.13
2017-08-10T22:56:34.976Z,53.17
2017-08-10T22:59:03.443Z,51.37
2017-08-10T23:01:31.904Z,50.10
2017-08-10T23:04:00.373Z,53.60
2017-08-10T23:06:28.803Z,54.43
2017-08-10T23:08:57.321Z,52.30
2017-08-10T23:11:25.785Z,50.40
2017-08-10T23:13:54.966Z,49.47
2017-08-10T23:16:23.387Z,50.90
2017-08-10T23:18:51.842Z,53.80
2017-08-10T23:21:21.047Z,48.60
2017-08-10T23:23:49.473Z,49.53
2017-08-10T23:26:17.917Z,50.40
2017-08-10T23:28:46.375Z,49.73
2017-08-10T23:31:15.564Z,50.27
2017-08-10T23:33:44.781Z,51.43
2017-08-10T23:36:13.202Z,49.50
2017-08-10T23:38:41.636Z,50.57
2017-08-10T23:41:10.843Z,51.07
2017-08-10T23:43:39.272Z,50.73
2017-08-10T23:46:07.682Z,50.80
2017-08-10T23:48:36.917Z,51.30
2017-08-10T23:51:05.433Z,50.90
2017-08-10T23:53:33.861Z,52.63
2017-08-10T23:56:02.296Z,51.53
2017-08-10T23:58:30.717Z,53.20
